This is the latest recevied weather packets stored in our database for station/object KB8DOA. If no packets are shown the sender has not sent any weather packets the latest 10 day(s).
| Time | Temp. | Humidity | Pressure | Rain* | Wind** | Luminosity | Snow |
|---|---|---|---|---|---|---|---|
| 1777488904 | 27.78° C | 71% | 1012.1 hPa | 0 mm | - | 0 W/m² | - |
| 1777488004 | 27.22° C | 70% | 1012.8 hPa | 0 mm | - | 0 W/m² | - |
| 1777483803 | 27.22° C | 73% | 1013.4 hPa | 0 mm | - | 1303 W/m² | - |
| 1777481704 | 27.22° C | 72% | 1013.1 hPa | 0 mm | - | 1285 W/m² | - |
| 1777478403 | 26.11° C | 72% | 1013.5 hPa | 0 mm | - | 1170 W/m² | - |
| 1777477503 | 26.11° C | 72% | 1013.6 hPa | 0 mm | - | 1122 W/m² | - |
| 1777475703 | 25.56° C | 80% | 1014.8 hPa | 0 mm | - | 1008 W/m² | - |
| 1777473904 | 26.11° C | 79% | 1015.2 hPa | 0 mm | - | 877 W/m² | - |
| 1777470903 | 26.11° C | 77% | 1013.8 hPa | 0 mm | - | 633 W/m² | - |
| 1777467304 | 26.11° C | 79% | 1012.6 hPa | 0 mm | - | 340 W/m² | - |
| 1777466404 | 25° C | 86% | 1015.4 hPa | 0 mm | - | 272 W/m² | - |
| 1777464304 | 23.33° C | 95% | 1017 hPa | 0 mm | - | 129 W/m² | - |
| 1777464004 | 23.33° C | 95% | 1017 hPa | 0 mm | - | 110 W/m² | - |
| 1777462204 | 21.11° C | 95% | 1016.1 hPa | 0 mm | - | 6 W/m² | - |
| 1777459204 | 20.56° C | 94% | 1015.4 hPa | 0 mm | - | 1 W/m² | - |
| 1777458304 | 20.56° C | 94% | 1015.1 hPa | 0 mm | - | 0 W/m² | - |
| 1777457704 | 20.56° C | 94% | 1015 hPa | 0 mm | - | 0 W/m² | - |
| 1777456804 | 20.56° C | 94% | 1014.9 hPa | 0 mm | - | 0 W/m² | - |
| 1777456503 | 20.56° C | 94% | 1014.7 hPa | 0 mm | - | 0 W/m² | - |
| 1777454404 | 20.56° C | 93% | 1014.4 hPa | 0 mm | - | 0 W/m² | - |
| 1777453803 | 21.11° C | 93% | 1014.4 hPa | 0 mm | - | 0 W/m² | - |
| 1777451403 | 21.11° C | 91% | 1014.2 hPa | 0 mm | - | 0 W/m² | - |
| 1777450504 | 21.11° C | 91% | 1014.3 hPa | 0 mm | - | 0 W/m² | - |
| 1777448104 | 21.67° C | 89% | 1014.8 hPa | 0 mm | - | 0 W/m² | - |
| 1777446304 | 22.22° C | 87% | 1015.2 hPa | 0 mm | - | 0 W/m² | - |
* Rain latest hour (hover to see other rain measurements)
** Current wind speed in m/s (hover to see current wind gust speed)